Time;durP1;ratioP1;P1;durP2;ratioP2;P2;SDS_P1;SDS_P2;PMS_P1;PMS_P2;Temp;Humidity;BMP_temperature;BMP_pressure;BME280_temperature;BME280_humidity;BME280_pressure;Samples;Min_cycle;Max_cycle;Signal;HPM_P1;HPM_P2
2021/05/24 00:00:16;;;;;;;4.60;1.88;;;;;;;20.62;39.81;101269.50;5063946;28;20032;-65
2021/05/24 00:02:43;;;;;;;2.97;1.60;;;;;;;20.60;39.76;101265.97;5069670;28;20043;-66
2021/05/24 00:05:13;;;;;;;4.13;1.50;;;;;;;20.58;39.95;101267.78;5068781;28;20060;-65
2021/05/24 00:07:40;;;;;;;1.98;1.58;;;;;;;20.42;40.24;101264.47;5065589;28;20040;-65
2021/05/24 00:10:10;;;;;;;2.78;1.52;;;;;;;20.36;40.45;101267.25;5070515;28;20484;-65
2021/05/24 00:12:39;;;;;;;2.58;1.50;;;;;;;20.29;40.43;101261.06;5068777;28;20072;-65
2021/05/24 00:15:08;;;;;;;2.60;1.52;;;;;;;20.34;40.67;101255.69;5059152;28;20053;-65
2021/05/24 00:17:35;;;;;;;2.97;1.58;;;;;;;20.39;40.67;101260.97;5051274;28;20045;-65
2021/05/24 00:20:02;;;;;;;4.40;1.70;;;;;;;20.46;40.36;101255.47;5049864;28;20048;-65
2021/05/24 00:22:29;;;;;;;3.70;1.77;;;;;;;20.52;40.42;101263.41;5062689;28;20056;-64
2021/05/24 00:24:56;;;;;;;2.40;1.70;;;;;;;20.53;40.58;101256.25;5068821;28;20389;-65
2021/05/24 00:27:23;;;;;;;2.95;1.60;;;;;;;20.53;40.95;101254.47;5069660;28;20675;-65
2021/05/24 00:29:51;;;;;;;3.78;1.52;;;;;;;20.51;41.14;101256.28;5068739;28;20033;-65
2021/05/24 00:32:18;;;;;;;4.63;2.00;;;;;;;20.46;41.55;101252.81;5069292;28;20032;-65
2021/05/24 00:34:46;;;;;;;5.43;2.00;;;;;;;20.35;41.69;101251.22;5069522;28;20127;-65
2021/05/24 00:37:13;;;;;;;4.20;1.95;;;;;;;20.29;42.19;101247.66;5069429;28;20048;-65
2021/05/24 00:39:40;;;;;;;4.57;2.10;;;;;;;20.30;42.26;101251.25;5063790;28;20516;-65
2021/05/24 00:42:07;;;;;;;4.35;1.80;;;;;;;20.29;42.19;101249.47;5069467;28;20123;-65
2021/05/24 00:44:35;;;;;;;4.70;1.73;;;;;;;20.34;42.24;101246.75;5069162;28;20128;-65
2021/05/24 00:47:03;;;;;;;2.60;1.58;;;;;;;20.43;42.34;101246.59;5067713;28;20124;-65
2021/05/24 00:49:31;;;;;;;2.92;1.77;;;;;;;20.40;42.26;101250.22;5069116;28;20551;-65
2021/05/24 00:51:59;;;;;;;6.28;1.85;;;;;;;20.43;42.27;101239.44;5068921;28;20132;-65
2021/05/24 00:54:27;;;;;;;4.15;1.83;;;;;;;20.43;42.27;101250.16;5066468;28;20127;-65
2021/05/24 00:56:57;;;;;;;4.82;1.92;;;;;;;20.44;42.30;101246.56;5068545;28;20044;-65
2021/05/24 00:59:25;;;;;;;3.13;1.60;;;;;;;20.43;42.35;101244.78;5069396;28;20047;-64
2021/05/24 01:01:52;;;;;;;4.88;1.85;;;;;;;20.49;42.22;101246.47;5068819;28;20085;-65
2021/05/24 01:04:20;;;;;;;2.58;1.50;;;;;;;20.60;42.31;101247.19;5069080;28;20111;-66
2021/05/24 01:06:48;;;;;;;2.60;1.80;;;;;;;20.56;42.33;101237.41;5068995;28;20040;-65
2021/05/24 01:09:17;;;;;;;2.22;1.60;;;;;;;20.54;42.38;101240.16;5067938;28;20111;-65
2021/05/24 01:11:44;;;;;;;2.95;1.85;;;;;;;20.50;42.40;101227.69;5068796;28;20047;-66
2021/05/24 01:14:11;;;;;;;3.13;1.83;;;;;;;20.45;42.67;101240.31;5069197;28;20068;-65
2021/05/24 01:16:38;;;;;;;3.33;2.05;;;;;;;20.39;42.78;101237.72;5069152;28;20392;-65
2021/05/24 01:19:05;;;;;;;2.45;1.77;;;;;;;20.22;42.93;101237.06;5067541;28;20518;-65
2021/05/24 01:21:33;;;;;;;3.10;1.75;;;;;;;20.14;43.28;101236.31;5068483;28;20115;-65
2021/05/24 01:24:01;;;;;;;5.45;2.03;;;;;;;20.08;43.39;101247.16;5069046;28;20130;-65
2021/05/24 01:26:28;;;;;;;3.92;1.75;;;;;;;20.18;43.37;101251.44;5059958;28;20037;-66
2021/05/24 01:28:55;;;;;;;4.38;1.80;;;;;;;20.22;43.30;101235.28;5063881;28;20148;-65
2021/05/24 01:31:22;;;;;;;5.03;2.33;;;;;;;20.33;43.08;101232.47;5068697;28;20072;-65
2021/05/24 01:33:49;;;;;;;3.65;1.70;;;;;;;20.38;42.97;101235.94;5057086;28;20588;-65
2021/05/24 01:36:16;;;;;;;4.93;1.90;;;;;;;20.37;43.42;101234.16;5066078;28;20127;-65
2021/05/24 01:38:45;;;;;;;3.63;1.95;;;;;;;20.36;43.43;101229.72;5072275;28;20132;-65
2021/05/24 01:41:13;;;;;;;2.80;2.00;;;;;;;20.30;43.57;101229.78;5072912;28;20572;-65
2021/05/24 01:43:40;;;;;;;5.97;1.98;;;;;;;20.21;43.78;101233.53;5072664;28;20037;-65
2021/05/24 01:46:08;;;;;;;5.97;2.25;;;;;;;20.19;43.97;101218.38;5066005;28;20071;-65
2021/05/24 01:48:37;;;;;;;4.78;1.90;;;;;;;20.19;43.85;101221.03;5070851;28;20032;-65
2021/05/24 01:51:06;;;;;;;4.20;1.65;;;;;;;20.20;44.10;101206.72;5072329;28;20040;-66
2021/05/24 01:53:34;;;;;;;3.25;1.73;;;;;;;20.13;44.58;101216.69;5071340;28;20036;-65
2021/05/24 01:56:02;;;;;;;3.80;1.55;;;;;;;20.14;44.54;101217.56;5071688;28;20037;-66
2021/05/24 01:58:30;;;;;;;3.15;1.70;;;;;;;20.16;44.38;101216.59;5072007;28;20044;-66
2021/05/24 02:01:02;;;;;;;4.10;1.70;;;;;;;20.29;44.39;101219.97;5071440;28;20438;-67
2021/05/24 02:03:29;;;;;;;3.63;1.85;;;;;;;20.32;44.25;101217.25;5071926;28;20047;-65
2021/05/24 02:05:56;;;;;;;3.80;1.40;;;;;;;20.30;44.37;101211.00;5072462;28;20044;-65
2021/05/24 02:08:23;;;;;;;3.78;2.00;;;;;;;20.26;44.47;101204.84;5052123;28;20128;-64
2021/05/24 02:10:50;;;;;;;3.92;2.00;;;;;;;20.24;44.64;101203.06;5051801;28;20043;-65
2021/05/24 02:13:17;;;;;;;3.35;1.67;;;;;;;20.24;44.61;101208.44;5068941;28;20744;-64
2021/05/24 02:15:45;;;;;;;3.80;1.60;;;;;;;20.16;44.83;101205.88;5071601;28;20071;-65
2021/05/24 02:18:12;;;;;;;2.65;1.50;;;;;;;20.12;44.75;101203.28;5072076;28;20043;-64
2021/05/24 02:20:39;;;;;;;2.75;1.90;;;;;;;20.04;45.11;101199.84;5070183;28;20128;-65
2021/05/24 02:23:09;;;;;;;3.63;1.90;;;;;;;20.02;45.29;101201.69;5068909;28;20044;-65
2021/05/24 02:25:36;;;;;;;3.97;1.60;;;;;;;20.15;44.88;101200.56;5071238;28;20120;-65
2021/05/24 02:28:04;;;;;;;4.50;1.80;;;;;;;20.11;44.75;101198.84;5071178;28;20056;-65
2021/05/24 02:30:35;;;;;;;5.07;2.00;;;;;;;20.05;44.99;101197.16;5071814;28;20115;-65
2021/05/24 02:33:03;;;;;;;9.40;2.30;;;;;;;20.01;45.07;101198.13;5071349;28;20095;-65
2021/05/24 02:35:30;;;;;;;5.28;1.90;;;;;;;19.90;45.28;101203.63;5070864;28;20050;-65
2021/05/24 02:37:58;;;;;;;5.43;1.95;;;;;;;19.98;45.04;101202.63;5066864;28;20741;-65
2021/05/24 02:40:27;;;;;;;4.57;2.03;;;;;;;19.96;44.87;101210.69;5070501;28;20044;-65
2021/05/24 02:42:55;;;;;;;4.80;1.77;;;;;;;19.99;44.72;101202.59;5070790;28;20041;-65
2021/05/24 02:45:22;;;;;;;4.43;1.58;;;;;;;20.00;44.77;101208.84;5070595;28;20132;-65
2021/05/24 02:47:52;;;;;;;3.80;1.30;;;;;;;20.01;44.82;101210.63;5071035;28;20033;-64
2021/05/24 02:50:22;;;;;;;3.25;1.75;;;;;;;20.12;44.49;101206.84;5070983;28;20049;-65
2021/05/24 02:52:49;;;;;;;2.95;1.67;;;;;;;20.18;44.14;101204.06;5070435;28;20037;-66
2021/05/24 02:55:16;;;;;;;4.35;2.00;;;;;;;20.20;44.34;101209.41;5071486;28;20128;-65
2021/05/24 02:57:44;;;;;;;3.40;1.50;;;;;;;20.19;44.33;101204.97;5070882;28;20548;-65
2021/05/24 03:00:12;;;;;;;6.05;1.85;;;;;;;20.25;43.96;101208.41;5071630;28;20124;-65
2021/05/24 03:02:45;;;;;;;3.38;1.60;;;;;;;20.26;43.96;101212.88;5070341;28;20139;-65
2021/05/24 03:05:16;;;;;;;6.70;1.70;;;;;;;20.22;44.17;101215.63;5069736;28;20404;-65
2021/05/24 03:07:43;;;;;;;2.97;1.58;;;;;;;20.32;43.87;101222.59;5070745;28;20056;-65
2021/05/24 03:10:11;;;;;;;3.63;1.70;;;;;;;20.32;43.68;101222.59;5070939;28;20510;-64
2021/05/24 03:12:38;;;;;;;4.50;1.80;;;;;;;20.29;43.98;101220.84;5071085;28;20149;-65
2021/05/24 03:15:06;;;;;;;5.10;1.98;;;;;;;20.24;43.90;101211.13;5070526;28;20056;-65
2021/05/24 03:17:33;;;;;;;5.50;2.13;;;;;;;20.15;44.20;101225.56;5070224;28;20115;-65
2021/05/24 03:20:00;;;;;;;2.60;1.67;;;;;;;20.14;44.32;101221.13;5069608;28;20033;-65
2021/05/24 03:22:29;;;;;;;2.22;1.52;;;;;;;20.19;44.04;101231.78;5060803;28;20037;-65
2021/05/24 03:24:55;;;;;;;4.38;1.50;;;;;;;20.30;43.85;101235.16;5070424;28;20113;-65
2021/05/24 03:27:22;;;;;;;4.47;1.75;;;;;;;20.44;43.67;101238.53;5069936;28;20115;-65
2021/05/24 03:29:49;;;;;;;3.55;1.60;;;;;;;20.61;43.39;101239.09;5070372;28;20492;-65
2021/05/24 03:32:16;;;;;;;3.13;1.50;;;;;;;20.74;43.21;101234.41;5068861;28;20040;-65
2021/05/24 03:34:43;;;;;;;8.55;1.63;;;;;;;20.78;43.21;101224.50;5070330;28;20044;-65
2021/05/24 03:37:11;;;;;;;5.65;1.70;;;;;;;20.83;43.10;101225.28;5070176;28;20091;-65
2021/05/24 03:39:39;;;;;;;3.25;1.67;;;;;;;20.92;43.32;101228.69;5070072;28;20037;-65
2021/05/24 03:42:06;;;;;;;4.30;1.40;;;;;;;20.99;43.24;101234.84;5069009;28;20128;-65
2021/05/24 03:44:34;;;;;;;4.30;1.60;;;;;;;21.12;43.06;101240.84;5070071;28;20032;-65
2021/05/24 03:47:02;;;;;;;6.03;1.40;;;;;;;21.30;42.32;101241.38;5069371;28;20037;-65
2021/05/24 03:49:29;;;;;;;4.32;1.20;;;;;;;21.48;42.19;101254.41;5070106;28;20459;-65
2021/05/24 03:51:55;;;;;;;5.03;1.60;;;;;;;21.67;41.29;101262.06;5069190;28;20044;-65
2021/05/24 03:54:22;;;;;;;2.95;1.40;;;;;;;21.87;40.75;101257.13;5062994;28;20032;-65
2021/05/24 03:56:51;;;;;;;1.58;0.98;;;;;;;22.10;40.43;101256.63;5069444;28;20051;-65
2021/05/24 03:59:18;;;;;;;3.30;1.30;;;;;;;22.20;40.64;101242.91;5069503;28;20052;-65
2021/05/24 04:02:05;;;;;;;4.18;1.33;;;;;;;22.30;41.16;101250.78;5069641;28;20044;-65
2021/05/24 04:04:33;;;;;;;3.63;1.30;;;;;;;22.47;40.56;101264.69;5070017;28;20111;-65
2021/05/24 04:07:02;;;;;;;3.25;1.63;;;;;;;22.65;40.09;101261.50;5068008;28;20466;-65
2021/05/24 04:09:30;;;;;;;3.30;1.30;;;;;;;22.85;39.56;101269.97;5069675;28;21033;-65
2021/05/24 04:11:58;;;;;;;6.72;1.60;;;;;;;23.01;39.43;101279.44;5069086;28;20056;-64
2021/05/24 04:14:25;;;;;;;3.58;1.13;;;;;;;23.26;38.92;101289.50;5068815;28;20115;-65
2021/05/24 04:16:52;;;;;;;4.32;1.40;;;;;;;23.50;38.74;101288.81;5069363;28;20047;-65
2021/05/24 04:19:19;;;;;;;2.10;1.33;;;;;;;23.76;38.27;101286.25;5068930;28;20044;-65
2021/05/24 04:21:46;;;;;;;6.00;1.48;;;;;;;23.99;37.87;101284.66;5067964;28;20032;-65
2021/05/24 04:24:15;;;;;;;3.45;1.33;;;;;;;24.20;37.59;101279.50;5065090;28;20048;-65
2021/05/24 04:26:42;;;;;;;3.95;1.27;;;;;;;24.38;37.55;101278.00;5068788;28;20041;-65
2021/05/24 04:29:10;;;;;;;2.42;1.10;;;;;;;24.59;37.21;101284.50;5053147;28;20140;-65
2021/05/24 04:31:37;;;;;;;4.55;1.30;;;;;;;24.73;36.79;101289.44;5065738;28;20077;-64
2021/05/24 04:34:05;;;;;;;3.05;1.10;;;;;;;24.93;36.32;101311.28;5066845;28;20114;-66
2021/05/24 04:36:32;;;;;;;2.78;1.15;;;;;;;25.19;36.19;101315.75;5067636;28;20064;-65
2021/05/24 04:39:00;;;;;;;1.85;1.13;;;;;;;25.51;35.60;101310.06;5064178;28;20041;-65
2021/05/24 04:41:27;;;;;;;3.53;1.40;;;;;;;25.84;35.28;101316.03;5068187;28;20064;-65
2021/05/24 04:44:08;;;;;;;2.17;1.05;;;;;;;26.06;34.60;101310.66;5068630;28;20111;-65
2021/05/24 04:46:36;;;;;;;4.65;1.48;;;;;;;26.29;34.36;101310.66;5068989;28;20046;-65
2021/05/24 04:49:03;;;;;;;3.92;1.23;;;;;;;26.55;34.46;101298.75;5051456;28;20063;-66
2021/05/24 04:51:30;;;;;;;2.55;1.40;;;;;;;26.78;33.93;101306.75;5056063;28;20262;-65
2021/05/24 04:53:57;;;;;;;2.58;1.30;;;;;;;27.02;33.29;101318.41;5069079;28;20123;-65
2021/05/24 04:56:24;;;;;;;2.90;1.30;;;;;;;27.21;32.73;101316.66;5061855;28;20036;-65
2021/05/24 04:58:51;;;;;;;3.67;1.00;;;;;;;27.40;32.21;101315.81;5067485;28;20036;-65
2021/05/24 05:01:18;;;;;;;4.30;1.30;;;;;;;27.61;31.99;101323.91;5069305;28;20107;-66
2021/05/24 05:03:46;;;;;;;2.55;0.85;;;;;;;27.81;30.99;101319.38;5067929;28;20093;-65
2021/05/24 05:06:13;;;;;;;4.88;1.08;;;;;;;28.06;30.83;101330.84;5069147;28;20033;-65
2021/05/24 05:08:40;;;;;;;3.92;1.30;;;;;;;28.40;30.27;101338.28;5065586;28;20040;-65
2021/05/24 05:11:08;;;;;;;2.50;1.10;;;;;;;28.63;29.99;101339.81;5073252;28;20036;-65
2021/05/24 05:13:36;;;;;;;2.10;1.00;;;;;;;28.87;30.15;101330.47;5073493;28;20068;-65
2021/05/24 05:16:03;;;;;;;1.77;0.90;;;;;;;29.13;29.75;101332.72;5072831;28;20029;-66
2021/05/24 05:18:30;;;;;;;2.72;1.10;;;;;;;29.29;28.99;101349.09;5072251;28;20131;-65
2021/05/24 05:20:58;;;;;;;7.10;1.60;;;;;;;29.43;28.52;101349.28;5073178;28;20112;-65
2021/05/24 05:23:25;;;;;;;4.43;1.25;;;;;;;29.48;28.41;101349.03;5069033;28;20033;-65
2021/05/24 05:25:52;;;;;;;3.70;1.08;;;;;;;29.68;28.44;101340.66;5053076;28;20377;-66
2021/05/24 05:28:22;;;;;;;3.40;1.10;;;;;;;29.97;28.38;101348.16;5052874;28;20041;-65
2021/05/24 05:30:49;;;;;;;4.00;1.17;;;;;;;30.18;27.99;101354.25;5052739;28;20500;-65
2021/05/24 05:33:17;;;;;;;2.72;1.15;;;;;;;30.38;27.85;101353.13;5066394;28;20045;-65
2021/05/24 05:35:47;;;;;;;2.60;0.90;;;;;;;30.63;27.69;101353.47;5072718;28;20060;-65
2021/05/24 05:38:16;;;;;;;4.63;1.20;;;;;;;30.83;27.46;101352.31;5072463;28;20047;-65
2021/05/24 05:40:46;;;;;;;4.95;1.10;;;;;;;30.87;27.17;101356.59;5072844;28;20037;-65
2021/05/24 05:43:13;;;;;;;2.92;1.08;;;;;;;31.04;26.79;101356.50;5071751;28;20052;-65
2021/05/24 05:45:40;;;;;;;3.97;1.30;;;;;;;31.07;26.73;101353.59;5064465;28;20093;-66
2021/05/24 05:48:08;;;;;;;3.28;1.00;;;;;;;31.13;26.69;101358.66;5071272;28;20499;-66
2021/05/24 05:50:35;;;;;;;3.42;0.90;;;;;;;31.39;26.66;101358.94;5072750;28;20124;-66
2021/05/24 05:53:02;;;;;;;2.47;1.00;;;;;;;31.50;26.27;101357.31;5072152;28;20037;-66
2021/05/24 05:55:30;;;;;;;3.55;1.20;;;;;;;31.43;25.93;101360.50;5072358;28;20078;-66
2021/05/24 05:57:57;;;;;;;2.40;1.30;;;;;;;31.46;26.08;101365.78;5072214;28;20056;-66
2021/05/24 06:00:25;;;;;;;1.98;1.13;;;;;;;31.60;25.95;101374.03;5070691;28;20032;-66
2021/05/24 06:02:53;;;;;;;3.00;0.95;;;;;;;31.57;26.06;101368.72;5053445;28;20128;-65
2021/05/24 06:05:20;;;;;;;3.33;1.25;;;;;;;31.32;26.31;101373.91;5052053;28;20041;-65
2021/05/24 06:07:48;;;;;;;2.20;1.15;;;;;;;31.38;26.44;101390.81;5052270;28;20544;-66
2021/05/24 06:10:16;;;;;;;2.38;0.98;;;;;;;31.49;26.07;101391.03;5052209;28;20041;-65
2021/05/24 06:12:47;;;;;;;2.67;1.17;;;;;;;31.67;26.25;101391.78;5051931;28;20072;-66
2021/05/24 06:15:18;;;;;;;4.30;1.10;;;;;;;31.67;26.40;101392.66;5052313;28;20029;-65
2021/05/24 06:17:45;;;;;;;2.55;1.05;;;;;;;31.90;26.19;101382.16;5068833;28;20028;-66
2021/05/24 06:20:14;;;;;;;2.38;1.10;;;;;;;31.91;26.35;101381.16;5071649;28;20170;-65
2021/05/24 06:22:41;;;;;;;1.92;1.20;;;;;;;31.96;26.00;101389.97;5071816;28;20079;-65
2021/05/24 06:25:10;;;;;;;5.90;1.20;;;;;;;32.09;26.13;101387.31;5063223;28;20051;-66
2021/05/24 06:27:37;;;;;;;2.42;0.95;;;;;;;32.09;25.60;101388.19;5051430;28;20041;-66
2021/05/24 06:30:09;;;;;;;1.05;0.88;;;;;;;32.09;25.66;101385.47;5051359;28;20045;-66
2021/05/24 06:32:36;;;;;;;2.05;1.30;;;;;;;32.15;25.60;101390.56;5068154;28;20515;-66
2021/05/24 06:35:04;;;;;;;3.13;1.10;;;;;;;32.15;25.60;101379.63;5071465;28;20418;-65
2021/05/24 06:37:31;;;;;;;3.78;1.13;;;;;;;32.15;25.55;101396.03;5071534;28;20457;-65
2021/05/24 06:39:58;;;;;;;4.18;1.10;;;;;;;32.29;25.89;101396.03;5071871;28;20094;-65
2021/05/24 06:42:25;;;;;;;1.83;1.10;;;;;;;32.43;25.44;101389.63;5071617;28;20036;-66
2021/05/24 06:44:53;;;;;;;3.67;1.20;;;;;;;32.57;25.74;101394.19;5071696;28;20431;-66
2021/05/24 06:47:23;;;;;;;3.28;1.30;;;;;;;32.81;25.78;101395.34;5067903;28;20033;-66
2021/05/24 06:49:50;;;;;;;4.50;1.00;;;;;;;32.83;25.46;101396.09;5071825;28;20427;-65
2021/05/24 06:52:17;;;;;;;2.70;1.20;;;;;;;32.77;25.53;101396.50;5071739;28;20119;-66
2021/05/24 06:54:44;;;;;;;2.30;1.13;;;;;;;32.73;25.30;101395.84;5071289;28;20041;-65
2021/05/24 06:57:11;;;;;;;6.35;1.90;;;;;;;32.80;25.22;101402.66;5071602;28;20040;-66
2021/05/24 06:59:38;;;;;;;1.50;1.05;;;;;;;32.80;25.42;101396.31;5072036;28;20461;-66
2021/05/24 07:02:05;;;;;;;3.42;1.00;;;;;;;32.91;25.05;101399.19;5062360;28;20044;-66
2021/05/24 07:04:34;;;;;;;1.88;0.98;;;;;;;32.90;24.41;101391.09;5051479;28;20422;-66
2021/05/24 07:07:01;;;;;;;1.70;1.10;;;;;;;32.86;24.41;101384.06;5051347;28;21127;-66
2021/05/24 07:09:28;;;;;;;1.50;1.15;;;;;;;32.88;24.21;101388.47;5057279;28;20035;-66
2021/05/24 07:11:54;;;;;;;4.63;1.13;;;;;;;33.00;24.46;101378.53;5069443;28;20162;-66
2021/05/24 07:14:21;;;;;;;2.47;0.90;;;;;;;33.03;23.84;101387.41;5071083;28;20041;-65
2021/05/24 07:16:50;;;;;;;3.35;0.85;;;;;;;33.16;23.68;101391.06;5070869;28;20028;-66
2021/05/24 07:19:17;;;;;;;2.80;1.20;;;;;;;33.33;24.22;101389.06;5071048;28;20047;-66
2021/05/24 07:21:45;;;;;;;2.38;0.90;;;;;;;33.43;24.09;101390.16;5069389;28;20124;-66
2021/05/24 07:24:12;;;;;;;1.52;0.70;;;;;;;33.35;23.85;101390.69;5070811;28;20119;-66
2021/05/24 07:26:39;;;;;;;2.13;0.90;;;;;;;33.46;23.81;101403.66;5069273;28;20032;-66
2021/05/24 07:29:06;;;;;;;3.40;0.90;;;;;;;33.51;24.12;101405.09;5070592;28;20139;-66
2021/05/24 07:31:33;;;;;;;2.35;1.20;;;;;;;33.69;24.16;101405.63;5070177;28;20068;-66
2021/05/24 07:34:00;;;;;;;2.45;0.85;;;;;;;33.70;23.79;101403.78;5068692;28;20136;-66
2021/05/24 07:36:27;;;;;;;2.25;1.00;;;;;;;33.82;23.50;101405.69;5067523;28;20062;-66
2021/05/24 07:38:55;;;;;;;2.88;1.20;;;;;;;33.76;23.20;101406.13;5056187;28;20060;-66
2021/05/24 07:41:23;;;;;;;1.60;1.00;;;;;;;33.76;23.09;101397.91;5053563;28;20033;-65
2021/05/24 07:43:50;;;;;;;3.53;0.90;;;;;;;33.85;23.26;101398.13;5052453;28;20488;-66
2021/05/24 07:46:17;;;;;;;1.60;0.90;;;;;;;33.88;22.85;101397.00;5050500;28;20508;-66
2021/05/24 07:48:44;;;;;;;3.42;0.90;;;;;;;33.98;22.83;101393.50;5062914;28;20475;-65
2021/05/24 07:51:11;;;;;;;1.30;0.75;;;;;;;34.02;22.38;101385.94;5070529;28;20040;-66
2021/05/24 07:53:38;;;;;;;3.17;1.00;;;;;;;33.81;22.34;101392.94;5070246;28;20047;-66
2021/05/24 07:56:06;;;;;;;1.40;1.00;;;;;;;33.80;22.10;101397.59;5066580;28;20041;-66
2021/05/24 07:58:33;;;;;;;1.60;1.00;;;;;;;33.90;22.37;101401.41;5069861;28;20047;-66
2021/05/24 08:01:00;;;;;;;1.88;1.10;;;;;;;34.01;22.47;101393.28;5070012;28;20117;-66
2021/05/24 08:03:27;;;;;;;2.22;0.80;;;;;;;34.04;21.94;101391.31;5068657;28;20059;-65
2021/05/24 08:05:55;;;;;;;2.88;1.00;;;;;;;33.97;21.80;101397.25;5063379;28;20139;-67
2021/05/24 08:08:22;;;;;;;2.42;1.10;;;;;;;33.78;21.74;101391.34;5069979;28;20037;-68
2021/05/24 08:10:49;;;;;;;1.90;1.00;;;;;;;33.60;22.07;101398.09;5069496;28;20040;-66
2021/05/24 08:13:17;;;;;;;2.20;0.85;;;;;;;33.65;21.80;101395.91;5065387;28;20456;-67
2021/05/24 08:15:44;;;;;;;2.40;1.00;;;;;;;33.74;21.90;101398.00;5058539;28;20037;-67
2021/05/24 08:18:11;;;;;;;2.88;0.95;;;;;;;33.90;22.00;101401.41;5051377;28;20404;-67
2021/05/24 08:20:39;;;;;;;2.47;0.82;;;;;;;34.04;22.09;101397.66;5058342;28;20032;-67
2021/05/24 08:23:07;;;;;;;2.50;0.90;;;;;;;33.99;22.15;101384.31;5067135;28;20047;-67
2021/05/24 08:25:35;;;;;;;3.65;1.20;;;;;;;34.06;22.10;101383.88;5068928;28;20052;-67
2021/05/24 08:28:02;;;;;;;2.58;1.00;;;;;;;34.19;21.87;101390.19;5052761;28;20045;-67
2021/05/24 08:30:32;;;;;;;2.80;0.90;;;;;;;34.15;21.65;101389.53;5049653;28;20037;-67
2021/05/24 08:32:59;;;;;;;2.25;0.82;;;;;;;34.30;22.08;101395.78;5059067;28;20114;-67
2021/05/24 08:35:26;;;;;;;1.50;0.82;;;;;;;34.49;21.93;101387.97;5053154;28;20047;-67
2021/05/24 08:37:53;;;;;;;2.42;1.10;;;;;;;34.48;21.45;101390.81;5049685;28;20045;-67
2021/05/24 08:40:22;;;;;;;2.35;0.80;;;;;;;34.53;21.30;101388.63;5063223;28;20047;-67
2021/05/24 08:42:49;;;;;;;3.75;0.82;;;;;;;34.40;21.32;101391.38;5068629;28;20033;-67
2021/05/24 08:45:16;;;;;;;1.58;0.80;;;;;;;34.48;21.32;101386.19;5068635;28;20064;-67
2021/05/24 08:47:45;;;;;;;1.67;0.90;;;;;;;34.52;20.66;101376.78;5069146;28;20041;-68
2021/05/24 08:50:14;;;;;;;1.85;1.05;;;;;;;34.21;21.01;101380.88;5065897;28;20054;-67
2021/05/24 08:52:41;;;;;;;3.45;0.95;;;;;;;34.27;21.02;101387.78;5069925;28;20036;-67
2021/05/24 08:55:11;;;;;;;1.25;0.73;;;;;;;34.66;21.21;101387.56;5069103;28;20128;-67
2021/05/24 08:57:39;;;;;;;1.42;0.77;;;;;;;34.56;20.89;101372.78;5069297;28;20497;-67
2021/05/24 09:00:08;;;;;;;2.88;0.98;;;;;;;34.49;20.97;101365.13;5069216;28;20090;-67
2021/05/24 09:02:38;;;;;;;2.28;1.00;;;;;;;34.34;21.21;101364.41;5054630;28;20033;-67
2021/05/24 09:05:11;;;;;;;1.30;0.80;;;;;;;33.85;21.31;101365.25;5068690;28;20029;-67
2021/05/24 09:07:49;;;;;;;2.15;1.00;;;;;;;33.58;21.27;101362.59;5069223;28;20121;-69
2021/05/24 09:10:17;;;;;;;2.88;1.30;;;;;;;33.46;21.67;101365.31;5069067;28;20094;-67
2021/05/24 09:12:45;;;;;;;2.90;1.00;;;;;;;33.66;21.39;101359.31;5069335;28;20035;-68
2021/05/24 09:15:15;;;;;;;2.67;0.88;;;;;;;33.95;21.45;101365.44;5069385;28;20040;-67
2021/05/24 09:17:44;;;;;;;2.90;1.00;;;;;;;34.30;21.23;101361.03;5051669;28;20033;-67
2021/05/24 09:20:36;;;;;;;2.80;1.20;;;;;;;34.43;20.94;101352.75;5049268;28;20033;-67
2021/05/24 09:23:18;;;;;;;1.33;0.80;;;;;;;34.55;20.67;101349.09;5059995;28;20051;-68
2021/05/24 09:25:50;;;;;;;4.40;1.05;;;;;;;34.82;20.52;101353.50;5065108;28;20435;-67
2021/05/24 09:28:32;;;;;;;2.75;0.90;;;;;;;34.89;20.33;101349.28;5067330;28;20116;-68
2021/05/24 09:31:01;;;;;;;2.80;0.90;;;;;;;34.68;20.61;101352.66;5061724;28;20036;-68
2021/05/24 09:33:29;;;;;;;2.33;0.90;;;;;;;34.85;20.68;101347.78;5069245;28;20083;-68
2021/05/24 09:35:57;;;;;;;3.13;0.90;;;;;;;34.93;20.25;101346.19;5068575;28;20385;-68
2021/05/24 09:38:26;;;;;;;3.10;0.88;;;;;;;34.87;20.22;101330.19;5068853;28;20519;-68
2021/05/24 09:40:55;;;;;;;1.77;0.90;;;;;;;34.61;20.52;101325.78;5068481;28;20032;-68
2021/05/24 09:43:33;;;;;;;3.88;0.93;;;;;;;34.56;20.51;101330.75;5058668;28;20480;-68
2021/05/24 09:46:15;;;;;;;1.55;0.60;;;;;;;34.55;20.21;101320.78;5068779;28;20399;-68
2021/05/24 09:48:43;;;;;;;3.15;1.13;;;;;;;34.65;20.14;101316.34;5068694;28;20040;-68
2021/05/24 09:51:14;;;;;;;2.17;0.88;;;;;;;34.76;20.28;101317.31;5055448;28;20043;-68
2021/05/24 09:53:42;;;;;;;2.80;1.00;;;;;;;34.82;20.29;101315.97;5057352;28;20494;-69
2021/05/24 09:56:11;;;;;;;1.50;0.70;;;;;;;34.97;19.88;101311.16;5070822;28;20041;-68
2021/05/24 09:58:38;;;;;;;2.97;0.80;;;;;;;35.02;20.03;101307.06;5070657;28;20051;-68
2021/05/24 10:01:15;;;;;;;1.55;1.02;;;;;;;35.12;19.58;101296.19;5071567;28;20036;-68
2021/05/24 10:03:43;;;;;;;1.60;0.98;;;;;;;34.86;19.80;101303.72;5071884;28;20603;-68
2021/05/24 10:06:12;;;;;;;2.47;0.90;;;;;;;34.39;19.67;101288.16;5072381;28;20045;-68
2021/05/24 10:08:42;;;;;;;2.63;0.77;;;;;;;34.50;20.11;101290.06;5072176;28;20113;-68
2021/05/24 10:11:11;;;;;;;2.13;0.82;;;;;;;34.43;20.03;101291.53;5069582;28;20040;-68
2021/05/24 10:13:38;;;;;;;1.27;0.90;;;;;;;34.21;19.75;101292.22;5071951;28;20045;-68
2021/05/24 10:16:10;;;;;;;2.63;0.80;;;;;;;33.63;20.16;101285.53;5071698;28;20044;-68
2021/05/24 10:18:38;;;;;;;2.60;0.80;;;;;;;33.84;20.24;101275.78;5071801;28;20093;-68
2021/05/24 10:21:06;;;;;;;1.45;0.80;;;;;;;34.07;19.91;101287.78;5069728;28;20056;-68
2021/05/24 10:23:34;;;;;;;0.85;0.77;;;;;;;34.05;20.11;101286.16;5071736;28;20132;-69
2021/05/24 10:26:03;;;;;;;2.33;0.82;;;;;;;34.24;19.89;101287.44;5070418;28;20489;-68
2021/05/24 10:28:32;;;;;;;2.70;0.85;;;;;;;34.36;19.67;101282.91;5072100;28;20132;-68
2021/05/24 10:31:01;;;;;;;1.70;1.00;;;;;;;34.35;19.49;101267.44;5066171;28;20041;-68
2021/05/24 10:33:40;;;;;;;2.22;0.93;;;;;;;34.12;19.59;101279.22;5060778;28;20048;-68
2021/05/24 10:36:22;;;;;;;4.53;0.90;;;;;;;33.84;19.92;101269.44;5071610;28;20054;-69
2021/05/24 10:39:06;;;;;;;1.75;0.82;;;;;;;34.03;20.09;101274.44;5070817;28;20605;-68
2021/05/24 10:41:57;;;;;;;1.65;0.73;;;;;;;34.27;19.96;101272.59;5051725;28;20127;-68
2021/05/24 10:44:25;;;;;;;3.67;0.93;;;;;;;34.42;19.89;101271.47;5050375;28;20045;-68
2021/05/24 10:46:53;;;;;;;2.85;1.10;;;;;;;34.60;19.71;101278.28;5068689;28;20032;-68
2021/05/24 10:49:25;;;;;;;7.70;3.15;;;;;;;34.69;19.34;101277.56;5071348;28;20043;-68
2021/05/24 10:51:55;;;;;;;7.10;1.02;;;;;;;34.82;19.26;101273.91;5069350;28;20085;-69
2021/05/24 10:54:41;;;;;;;1.50;1.00;;;;;;;34.63;19.54;101272.56;5071363;28;20123;-68
2021/05/24 10:57:19;;;;;;;1.85;0.82;;;;;;;34.09;20.06;101279.44;5071276;28;20120;-69
2021/05/24 10:59:58;;;;;;;1.65;1.15;;;;;;;34.30;19.98;101283.38;5068663;28;20033;-68
2021/05/24 11:02:42;;;;;;;1.23;0.82;;;;;;;34.52;19.93;101275.28;5070736;28;20403;-68
2021/05/24 11:05:29;;;;;;;2.15;1.08;;;;;;;34.74;19.42;101283.59;5068105;28;20036;-69
2021/05/24 11:08:01;;;;;;;2.72;0.88;;;;;;;34.62;19.20;101281.78;5069598;28;20056;-69
2021/05/24 11:10:31;;;;;;;0.98;0.75;;;;;;;34.77;19.39;101283.38;5071292;28;20040;-68
2021/05/24 11:13:29;;;;;;;5.43;1.35;;;;;;;34.96;19.36;101288.31;5070456;28;20127;-69
2021/05/24 11:16:12;;;;;;;3.63;1.08;;;;;;;35.17;19.14;101296.75;5070063;28;20039;-68
2021/05/24 11:18:43;;;;;;;2.30;0.93;;;;;;;35.14;19.19;101296.97;5070688;28;20050;-68
2021/05/24 11:21:19;;;;;;;1.48;0.80;;;;;;;35.00;19.47;101294.44;5050711;28;20041;-68
2021/05/24 11:24:03;;;;;;;4.45;0.90;;;;;;;35.22;18.93;101288.16;5051378;28;20130;-68
2021/05/24 11:26:33;;;;;;;1.30;1.00;;;;;;;35.05;19.01;101295.81;5050552;28;20419;-69
2021/05/24 11:29:06;;;;;;;1.27;1.05;;;;;;;34.99;19.16;101290.81;5050659;28;20079;-68
2021/05/24 11:31:46;;;;;;;1.50;1.00;;;;;;;35.25;18.67;101288.78;5053215;28;20052;-68